Flight Track Log - Related Links

Times and Time Zones

All times are in EDT time to prevent confusion due to time zone crossing. See the WAE21 flight status page for this flight to view local times or setup timezone preferences in your user account.

Time Position Orientation Groundspeed Altitude Reporting Facility
EDT Latitude Longitude Course Direction KTS MPH feet Rate Location/Type
Fri 01:57:03 AM 40.7975 -111.9767 356° North 109 125 4,800  Level Salt Lake Center
Fri 01:57:34 AM 40.8172 -111.9786 356° North 118 136 5,400 1,200 Climbing Salt Lake Center
Fri 01:58:13 AM 40.8347 -111.9811 354° North 110 127 6,200 1,300 Climbing Salt Lake Center
Fri 01:58:34 AM 40.8486 -111.9850 348° North 112 129 6,700 984 Climbing Salt Lake Center
Fri 01:59:14 AM 40.8664 -111.9853 359° North 114 131 7,200 787 Climbing Salt Lake Center
Fri 01:59:35 AM 40.8814 -111.9878 353° North 116 133 7,500 1,000 Climbing Salt Lake Center
Fri 02:00:14 AM 40.9003 -111.9897 356° North 121 139 8,200 900 Climbing Salt Lake Center
Fri 02:00:35 AM 40.9144 -111.9908 357° North 122 140 8,400 590 Climbing Salt Lake Center
Fri 02:01:15 AM 40.9381 -111.9944 353° North 136 157 8,800 787 Climbing Salt Lake Center
Fri 02:01:36 AM 40.9564 -111.9964 355° North 150 173 9,200 900 Climbing Salt Lake Center
Fri 02:02:15 AM 40.9806 -111.9989 356° North 151 174 9,700 885 Climbing Salt Lake Center
Fri 02:02:37 AM 40.9983 -112.0019 353° North 151 174 10,100 885 Climbing Salt Lake Center
Fri 02:03:16 AM 41.0228 -112.0047 355° North 151 174 10,600 800 Climbing Salt Lake Center
Fri 02:03:37 AM 41.0383 -111.9969 21° North 160 184 10,900 800 Climbing Salt Lake Center
Fri 02:04:16 AM 41.0417 -111.9636 82° East 161 185 11,400 885 Climbing Salt Lake Center
Fri 02:04:38 AM 41.0308 -111.9483 133° Southeast 139 160 11,800 984 Climbing Salt Lake Center
Fri 02:05:17 AM 41.0153 -111.9311 140° Southeast 149 171 12,400 1,000 Climbing Salt Lake Center
Fri 02:05:38 AM 41.0028 -111.9153 136° Southeast 138 159 12,800 885 Climbing Salt Lake Center
Fri 02:06:18 AM 40.9867 -111.8964 138° Southeast 143 165 13,300 885 Climbing Salt Lake Center
Fri 02:06:39 AM 40.9744 -111.8794 134° Southeast 139 160 13,700 900 Climbing Salt Lake Center
Fri 02:07:18 AM 40.9606 -111.8617 136° Southeast 138 159 14,200 840 Climbing Salt Lake Center
Fri 02:08:19 AM 40.9264 -111.8175 136° Southeast 144 166 15,100 893 Climbing Salt Lake Center
Fri 02:09:19 AM 40.8964 -111.7811 137° Southeast 147 169 16,000 843 Climbing Salt Lake Center
Fri 02:10:20 AM 40.8697 -111.7383 129° Southeast 152 175 16,800 545 Climbing Salt Lake Center
Fri 02:11:20 AM 40.8367 -111.7011 140° Southeast 159 183 17,100 149 Climbing Salt Lake Center
Fri 02:12:21 AM 40.7972 -111.6617 143° Southeast 178 205 17,100 -49 Level Salt Lake Center
Fri 02:13:22 AM 40.7617 -111.6081 131° Southeast 195 224 17,000 -50 Descending Salt Lake Center
Fri 02:14:22 AM 40.7272 -111.5522 129° Southeast 197 227 17,000  Level Salt Lake Center
Fri 02:15:23 AM 40.6950 -111.4975 128° Southeast 189 217 17,000  Level Salt Lake Center
Fri 02:16:23 AM 40.6617 -111.4428 129° Southeast 191 220 17,000  Level Salt Lake Center
Fri 02:17:24 AM 40.6322 -111.3903 126° Southeast 180 207 17,000  Level Salt Lake Center
Fri 02:18:24 AM 40.6033 -111.3369 125° Southeast 178 205 17,000  Level Salt Lake Center
Fri 02:19:25 AM 40.5739 -111.2842 126° Southeast 178 205 17,000  Level Salt Lake Center
Fri 02:20:26 AM 40.5792 -111.2108 85° East 202 232 17,000 50 Level Salt Lake Center
Fri 02:21:26 AM 40.5606 -111.1453 110° East 192 221 17,100  Climbing Salt Lake Center
Fri 02:22:27 AM 40.5392 -111.0819 114° Southeast 190 219 17,000 -50 Descending Salt Lake Center
Fri 02:23:27 AM 40.5189 -111.0206 113° Southeast 186 214 17,000  Level Salt Lake Center
Fri 02:24:28 AM 40.4967 -110.9589 115° Southeast 187 215 17,000  Level Salt Lake Center
Fri 02:25:28 AM 40.4761 -110.8969 114° Southeast 185 213 17,000  Level Salt Lake Center
Fri 02:26:29 AM 40.4494 -110.8244 116° Southeast 185 213 17,000  Level Salt Lake Center
Fri 02:27:29 AM 40.4278 -110.7631 115° Southeast 187 215 17,000  Level Salt Lake Center
Fri 02:28:30 AM 40.4036 -110.7053 119° Southeast 183 211 17,000  Level Salt Lake Center
Fri 02:29:31 AM 40.3728 -110.6494 126° Southeast 188 216 17,000  Level Salt Lake Center
Fri 02:30:31 AM 40.3436 -110.5958 126° Southeast 183 211 17,000  Level Salt Lake Center
Fri 02:31:32 AM 40.3142 -110.5392 124° Southeast 183 211 17,000  Level Salt Lake Center
Fri 02:32:32 AM 40.2944 -110.4800 114° Southeast 184 212 17,000  Level Salt Lake Center
Fri 02:33:33 AM 40.2733 -110.4222 116° Southeast 185 213 17,000  Level Salt Lake Center
Fri 02:34:33 AM 40.2467 -110.3581 119° Southeast 181 208 17,000  Level Salt Lake Center
Fri 02:35:34 AM 40.2233 -110.3033 119° Southeast 180 207 17,000  Level Salt Lake Center
Fri 02:36:34 AM 40.1972 -110.2464 121° Southeast 187 215 17,000  Level Salt Lake Center
Fri 02:37:35 AM 40.1672 -110.1775 120° Southeast 195 224 17,000  Level Salt Lake Center
Fri 02:38:35 AM 40.1475 -110.1156 113° Southeast 194 223 17,000  Level Salt Lake Center
Fri 02:39:36 AM 40.1592 -110.0444 78° East 205 236 17,000 99 Level Salt Lake Center
Fri 02:40:36 AM 40.1514 -109.9753 98° East 201 231 17,200 145 Climbing Salt Lake Center
Fri 02:42:21 AM 40.1389 -109.8486 97° East 197 227 17,400 -29 Climbing Denver Center
Fri 02:44:00 AM 40.1328 -109.7363 94° East  Level FlightAware Approximate
Fri 02:47:23 AM 40.1197 -109.4622 90° East 208 239 17,000  Level Denver Center
Fri 02:48:23 AM 40.1158 -109.3886 94° East 212 244 17,000  Level Denver Center
Fri 02:49:23 AM 40.1094 -109.3156 96° East 211 243 17,000 -50 Level Denver Center
Fri 02:50:24 AM 40.1022 -109.2294 96° East 214 246 16,900 -50 Descending Denver Center
Fri 02:51:00 AM 40.1167 -109.2592 90° East  Level FlightAware Approximate
Fri 02:51:24 AM 40.0983 -109.1564 94° East 212 244 16,900  Level Denver Center
Fri 02:52:00 AM 40.1167 -109.1909 90° East  Level FlightAware Approximate
Fri 02:52:24 AM 40.0925 -109.0839 96° East 210 242 16,900  Level Denver Center
Fri 02:52:42 AM 40.0900 -109.0600 98° East 210 242 16,900  Level Salt Lake Center
Fri 02:53:42 AM 40.0878 -108.9858 92° East 212 244 16,900  Level Salt Lake Center
Fri 02:54:43 AM 40.0864 -108.8983 91° East 215 247 16,900  Level Salt Lake Center
Fri 02:55:25 AM 40.0861 -108.8492 90° East 213 245 16,900  Level Denver Center
Fri 02:56:26 AM 40.0836 -108.7744 92° East 213 245 16,900  Level Denver Center
Fri 02:57:26 AM 40.0850 -108.6875 89° East 213 245 16,900  Level Denver Center
Fri 02:58:26 AM 40.0842 -108.6136 91° East 213 245 16,900  Level Denver Center
Fri 02:59:29 AM 40.0836 -108.5389 91° East 214 246 16,900  Level Denver Center
Fri 03:00:29 AM 40.0825 -108.4525 91° East 213 245 16,900  Level Denver Center
Fri 03:01:29 AM 40.0792 -108.3792 93° East 211 243 16,900  Level Denver Center
Fri 03:02:30 AM 40.0775 -108.3064 92° East 210 242 16,900  Level Denver Center
Fri 03:03:30 AM 40.0767 -108.2331 91° East 211 243 16,900  Level Denver Center
Fri 03:04:30 AM 40.0733 -108.1481 93° East 210 242 16,900  Level Denver Center
Fri 03:05:31 AM 40.0731 -108.0744 90° East 212 244 16,900  Level Denver Center
Fri 03:06:31 AM 40.0689 -108.0014 94° East 213 245 16,900  Level Denver Center
Fri 03:07:31 AM 40.0667 -107.9153 92° East 212 244 16,900  Level Denver Center
Fri 03:08:32 AM 40.0619 -107.8417 95° East 212 244 16,900  Level Denver Center
Fri 03:09:32 AM 40.0628 -107.7667 89° East 215 247 16,900  Level Denver Center
Fri 03:10:33 AM 40.0597 -107.6911 93° East 218 251 16,900  Level Denver Center
Fri 03:11:33 AM 40.0544 -107.6033 94° East 218 251 16,900  Level Denver Center
Fri 03:12:33 AM 40.0511 -107.5275 93° East 220 253 16,900  Level Denver Center
Fri 03:13:34 AM 40.0475 -107.4550 94° East 213 245 16,900  Level Denver Center
Fri 03:14:34 AM 40.0431 -107.3686 94° East 212 244 16,900  Level Denver Center
Fri 03:15:35 AM 40.0319 -107.2972 101° East 209 241 16,900  Level Denver Center
Fri 03:16:35 AM 40.0206 -107.2258 102° East 211 243 16,900  Level Denver Center
Fri 03:17:35 AM 40.0139 -107.1653 98° East 214 246 16,900  Level Denver Center
Fri 03:18:36 AM 40.0075 -107.0761 95° East 210 242 16,900  Level Denver Center
Fri 03:19:36 AM 40.0086 -106.9975 89° East 215 247 16,900  Level Denver Center
Fri 03:20:37 AM 40.0103 -106.9214 88° East 211 243 16,900 45 Level Denver Center
Fri 03:21:49 AM 40.0114 -106.8317 89° East 207 238 17,000 45 Climbing Denver Center
Fri 03:22:50 AM 40.0097 -106.7542 92° East 211 243 17,000  Level Denver Center
Fri 03:23:50 AM 40.0086 -106.6756 91° East 216 249 17,000  Level Denver Center
Fri 03:24:50 AM 40.0067 -106.5978 92° East 215 247 17,000  Level Denver Center
Fri 03:25:51 AM 40.0039 -106.5194 93° East 215 247 17,000  Level Denver Center
Fri 03:26:51 AM 39.9975 -106.4419 96° East 215 247 17,000  Level Denver Center
Fri 03:27:52 AM 39.9881 -106.3656 99° East 215 247 17,000  Level Denver Center
Fri 03:28:52 AM 39.9725 -106.2933 106° East 211 243 17,000  Level Denver Center
Fri 03:29:52 AM 39.9561 -106.2194 106° East 210 242 17,000  Level Denver Center
Fri 03:30:53 AM 39.9425 -106.1458 104° East 209 241 17,000  Level Denver Center
Fri 03:31:53 AM 39.9283 -106.0739 104° East 208 239 17,000  Level Denver Center
Fri 03:32:54 AM 39.9108 -106.0031 108° East 206 237 17,000  Level Denver Center
Fri 03:33:54 AM 39.8989 -105.9297 102° East 206 237 17,000 -99 Level Denver Center
Fri 03:34:55 AM 39.8911 -105.8556 98° East 207 238 16,800 -496 Descending Denver Center
Fri 03:35:55 AM 39.8775 -105.7708 102° East 221 254 16,000 -400 Descending Denver Center
Fri 03:36:55 AM 39.8658 -105.6889 100° East 215 247 16,000 50 Level Denver Center
Fri 03:37:56 AM 39.8614 -105.6214 95° East 190 219 16,100  Climbing Denver Center
Fri 03:38:56 AM 39.8556 -105.5547 96° East 186 214 16,000  Descending Denver Center
Fri 03:39:57 AM 39.8472 -105.4897 99° East 183 211 16,100 -248 Climbing Denver Center
Fri 03:40:57 AM 39.8350 -105.4189 103° East 198 228 15,500 -750 Descending Denver Center
Fri 03:41:57 AM 39.8206 -105.3439 104° East 212 244 14,600 -893 Descending Denver Center
Fri 03:42:58 AM 39.8058 -105.2686 104° East 215 247 13,700 -942 Descending Denver Center
Fri 03:43:58 AM 39.7919 -105.1958 104° East 210 242 12,700 -992 Descending Denver Center
Fri 03:44:59 AM 39.7767 -105.1208 105° East 214 246 11,700 -942 Descending Denver Center
Fri 03:45:59 AM 39.7603 -105.0500 107° East 208 239 10,800 -1,041 Descending Denver Center
Fri 03:47:00 AM 39.7350 -104.9811 115° Southeast 199 229 9,600 -793 Descending Denver Center
Fri 03:48:00 AM 39.7278 -104.9228 99° East 168 193 9,200 -700 Descending Denver Center
Fri 03:49:00 AM 39.7089 -104.8800 120° Southeast 141 162 8,200 -843 Descending Denver Center
Fri 03:50:01 AM 39.6792 -104.8556 148° Southeast 132 152 7,500 -595 Descending Denver Center
Fri 03:51:01 AM 39.6469 -104.8539 178° South 119 137 7,000 -496 Descending Denver Center
Fri 03:52:02 AM 39.6144 -104.8533 179° South 118 136 6,500 -545 Descending Denver Center
Fri 03:53:02 AM 39.5783 -104.8514 178° South 120 138 5,900 -600 Descending Denver Center
Fri 03:55:00 AM 39.5701 -104.8493 58° Northeast  Level Estimated
Fri 04:02:00 AM 39.5701 -104.8493 235° Southwest  Level Estimated
Fri 04:03:00 AM 39.5701 -104.8493 235° Southwest  Level Estimated

Login

Don't have an account? Register now (free) for customized features, flight alerts, and more!